Accueil
METAR-TAF:

METAR-TAF

Aéroports :

Aéroport de Nancy-Essey

Nancy, France

latitude: 48-41N, longitude: 006-13E, altitude: 225 m

Observation

Le bulletin a été fait il y a 30 minutes, à 15:30 UTC
Vent 4 kt de est/nord-est
Température -1°C
Humidité 74%
Pression 1020 hPa
Visibilité: 9000 m

METAR: LFSN 151530Z AUTO 07004KT 9000 NSC M01/M05 Q1020

Heure: 17:00 (16:00 UTC)


TAF: absent

Observations et prévisions météorologiques de plus de 4000 aéroports (messages METAR et TAF).

Les stations disponibles sont représentées par des disques jaunes et rouges sur la carte.

Passer la souris dessus pour voir le nom de la station.

Cliquer dessus pour voir les observations et prévisions météorologiques.

Pour changer de carte: cliquez sur les boutons verts avec une croix noire pour zoomer, sur le bouton vert avec un tiret pour effectuer un zoom arrière, ou sur les flèches vertes pour les cartes adjacentes.


METAR-TAF: